Time;durP1;ratioP1;P1;durP2;ratioP2;P2;SDS_P1;SDS_P2;PMS_P1;PMS_P2;Temp;Humidity;BMP_temperature;BMP_pressure;BME280_temperature;BME280_humidity;BME280_pressure;Samples;Min_cycle;Max_cycle;Signal;HPM_P1;HPM_P2
2024/03/26 00:02:07;;;;;;;2.90;2.47;;;19.10;58.90;;;;;;5036749;28;20401;-57
2024/03/26 00:04:32;;;;;;;4.88;2.72;;;19.20;58.90;;;;;;5034190;28;20025;-62
2024/03/26 00:06:58;;;;;;;4.28;2.45;;;19.10;58.90;;;;;;5035948;28;20044;-55
2024/03/26 00:09:24;;;;;;;2.75;2.03;;;19.20;58.90;;;;;;5031664;28;20117;-51
2024/03/26 00:11:49;;;;;;;3.63;2.25;;;19.20;58.90;;;;;;5034135;28;20037;-55
2024/03/26 00:14:15;;;;;;;3.05;2.13;;;19.20;58.90;;;;;;5026781;28;20514;-56
2024/03/26 00:16:40;;;;;;;2.40;1.80;;;19.10;59.50;;;;;;5035203;28;20049;-57
2024/03/26 00:19:06;;;;;;;2.80;2.30;;;19.20;58.90;;;;;;5034475;28;20073;-52
2024/03/26 00:21:31;;;;;;;3.08;2.25;;;19.20;58.90;;;;;;5033080;28;20037;-52
2024/03/26 00:23:57;;;;;;;2.22;1.73;;;19.20;58.90;;;;;;5028902;28;20036;-57
2024/03/26 00:26:22;;;;;;;2.80;2.05;;;19.20;58.90;;;;;;5034268;28;20386;-54
2024/03/26 00:28:48;;;;;;;2.97;1.73;;;19.20;58.90;;;;;;5029420;28;20033;-50
2024/03/26 00:31:13;;;;;;;3.88;2.30;;;19.20;58.90;;;;;;5036260;28;20045;-53
2024/03/26 00:33:39;;;;;;;3.10;2.22;;;19.20;58.90;;;;;;5030090;28;20903;-55
2024/03/26 00:36:04;;;;;;;3.03;1.83;;;19.20;58.90;;;;;;5034256;28;20060;-52
2024/03/26 00:38:30;;;;;;;3.42;2.20;;;19.20;58.80;;;;;;5030131;28;20557;-52
2024/03/26 00:40:55;;;;;;;3.63;2.35;;;19.20;58.80;;;;;;5032721;28;20552;-55
2024/03/26 00:43:21;;;;;;;2.90;1.98;;;19.20;58.80;;;;;;5029678;28;20028;-54
2024/03/26 00:45:46;;;;;;;2.20;1.85;;;19.20;58.80;;;;;;5030968;28;20132;-51
2024/03/26 00:48:12;;;;;;;2.25;1.77;;;19.20;58.70;;;;;;5032250;28;20052;-60
2024/03/26 00:50:37;;;;;;;2.92;1.77;;;19.20;58.70;;;;;;5032536;28;20045;-55
2024/03/26 00:53:03;;;;;;;2.92;1.88;;;19.20;58.80;;;;;;5029227;28;20036;-54
2024/03/26 00:55:28;;;;;;;2.13;1.45;;;19.20;58.70;;;;;;5031722;28;20083;-52
2024/03/26 00:57:54;;;;;;;2.45;1.65;;;19.20;59.40;;;;;;5035874;28;20041;-56
2024/03/26 01:00:20;;;;;;;2.78;1.40;;;19.20;58.80;;;;;;5046635;28;20029;-54
2024/03/26 01:02:45;;;;;;;3.20;1.90;;;19.20;58.80;;;;;;5025647;28;20393;-55
2024/03/26 01:05:11;;;;;;;4.25;2.72;;;19.20;58.70;;;;;;5031267;28;20090;-53
2024/03/26 01:07:36;;;;;;;3.15;1.60;;;19.20;58.80;;;;;;5029045;28;20033;-53
2024/03/26 01:10:02;;;;;;;1.50;1.40;;;19.20;58.70;;;;;;5033223;28;20637;-54
2024/03/26 01:12:30;;;;;;;2.33;1.60;;;19.20;58.70;;;;;;5026790;28;20064;-52
2024/03/26 01:14:55;;;;;;;2.60;1.60;;;19.20;58.70;;;;;;5034890;28;20025;-52
2024/03/26 01:17:21;;;;;;;2.08;1.70;;;19.20;58.70;;;;;;5034146;28;20525;-51
2024/03/26 01:19:46;;;;;;;2.72;1.90;;;19.20;58.80;;;;;;5025527;28;20386;-54
2024/03/26 01:22:12;;;;;;;1.75;1.50;;;19.20;58.80;;;;;;5031444;28;20030;-54
2024/03/26 01:24:37;;;;;;;2.35;1.85;;;19.10;58.70;;;;;;5030014;28;20113;-51
2024/03/26 01:27:03;;;;;;;3.53;2.15;;;19.10;58.80;;;;;;5030756;28;20038;-62
2024/03/26 01:29:28;;;;;;;2.13;1.65;;;19.10;58.90;;;;;;5028389;28;20044;-55
2024/03/26 01:31:54;;;;;;;2.00;1.80;;;19.00;59.00;;;;;;5031302;28;20025;-53
2024/03/26 01:34:19;;;;;;;2.15;1.48;;;19.00;59.20;;;;;;5029128;28;20029;-53
2024/03/26 01:36:45;;;;;;;2.47;1.55;;;19.00;59.20;;;;;;5025285;28;20116;-56
2024/03/26 01:39:12;;;;;;;2.10;1.80;;;18.90;59.30;;;;;;5029268;28;20087;-55
2024/03/26 01:41:38;;;;;;;2.20;1.63;;;18.80;59.40;;;;;;5015062;28;20033;-52
2024/03/26 01:44:05;;;;;;;1.30;1.00;;;18.80;59.50;;;;;;5032738;28;20132;-53
2024/03/26 01:46:31;;;;;;;1.67;1.52;;;18.80;59.50;;;;;;5028102;28;20075;-54
2024/03/26 01:48:57;;;;;;;1.90;1.33;;;18.80;59.50;;;;;;5030781;28;20067;-57
2024/03/26 01:51:23;;;;;;;2.28;1.50;;;18.70;59.40;;;;;;5026392;28;20091;-54
2024/03/26 01:53:49;;;;;;;2.13;1.48;;;18.70;59.50;;;;;;5028036;28;20037;-54
2024/03/26 01:56:17;;;;;;;2.10;1.65;;;18.70;59.50;;;;;;5028833;28;20447;-57
2024/03/26 01:58:44;;;;;;;3.03;1.77;;;18.70;59.30;;;;;;5024647;28;20022;-52
2024/03/26 02:01:11;;;;;;;1.83;1.40;;;18.70;59.40;;;;;;5024315;28;20084;-51
2024/03/26 02:03:37;;;;;;;3.00;1.38;;;18.70;59.20;;;;;;5025995;28;20049;-54
2024/03/26 02:06:03;;;;;;;2.33;1.42;;;18.80;59.20;;;;;;5023461;28;20145;-53
2024/03/26 02:08:29;;;;;;;2.03;1.50;;;18.80;59.30;;;;;;5024324;28;20041;-50
2024/03/26 02:10:55;;;;;;;2.00;1.40;;;18.80;59.20;;;;;;5022626;28;20039;-54
2024/03/26 02:13:21;;;;;;;1.52;1.25;;;18.80;59.20;;;;;;5025594;28;20033;-54
2024/03/26 02:15:46;;;;;;;1.95;1.30;;;18.80;59.10;;;;;;5021303;28;20596;-52
2024/03/26 02:18:12;;;;;;;1.63;1.08;;;18.80;59.00;;;;;;5025570;28;20029;-52
2024/03/26 02:20:37;;;;;;;2.95;1.65;;;18.80;59.10;;;;;;5020810;28;20037;-54
2024/03/26 02:23:03;;;;;;;2.00;1.33;;;18.80;58.90;;;;;;5028670;28;20026;-52
2024/03/26 02:25:28;;;;;;;1.38;1.27;;;18.80;59.00;;;;;;5027656;28;20079;-54
2024/03/26 02:27:54;;;;;;;1.80;1.40;;;18.80;59.00;;;;;;5030759;28;20542;-57
2024/03/26 02:30:19;;;;;;;2.17;1.50;;;18.90;59.00;;;;;;5028919;28;20029;-54
2024/03/26 02:32:45;;;;;;;2.42;1.63;;;18.90;58.90;;;;;;5020633;28;20052;-50
2024/03/26 02:35:10;;;;;;;2.05;1.42;;;18.90;58.90;;;;;;5044596;28;20554;-51
2024/03/26 02:37:36;;;;;;;1.92;1.20;;;18.90;58.80;;;;;;5030959;28;20040;-55
2024/03/26 02:40:03;;;;;;;1.63;1.20;;;18.90;58.80;;;;;;5025809;28;20041;-53
2024/03/26 02:42:29;;;;;;;1.33;1.23;;;18.90;58.70;;;;;;5033822;28;20088;-53
2024/03/26 02:44:55;;;;;;;1.55;1.45;;;19.00;58.70;;;;;;5026933;28;20476;-53
2024/03/26 02:47:21;;;;;;;1.88;1.00;;;19.00;58.80;;;;;;5029782;28;20051;-51
2024/03/26 02:49:46;;;;;;;1.30;1.20;;;18.90;58.80;;;;;;5025937;28;20075;-54
2024/03/26 02:52:12;;;;;;;1.40;1.00;;;19.00;58.80;;;;;;5029318;28;20040;-52
2024/03/26 02:54:38;;;;;;;1.67;1.10;;;18.90;58.70;;;;;;5024409;28;20042;-50
2024/03/26 02:57:03;;;;;;;1.42;1.08;;;19.00;58.70;;;;;;5027158;28;20044;-55
2024/03/26 02:59:29;;;;;;;1.75;1.50;;;19.00;58.70;;;;;;5024012;28;20029;-50
2024/03/26 03:01:54;;;;;;;1.35;1.15;;;19.00;58.60;;;;;;5023049;28;20132;-50
2024/03/26 03:04:20;;;;;;;1.63;1.35;;;19.00;58.60;;;;;;5016630;28;20719;-51
2024/03/26 03:06:45;;;;;;;2.60;1.52;;;19.00;58.70;;;;;;5015459;28;20051;-50
2024/03/26 03:09:12;;;;;;;1.35;1.13;;;19.00;58.70;;;;;;5016667;28;21822;-49
2024/03/26 03:11:40;;;;;;;1.45;1.02;;;19.00;58.60;;;;;;4988884;28;20542;-51
2024/03/26 03:14:06;;;;;;;1.30;1.17;;;19.00;58.60;;;;;;5035175;28;20588;-50
2024/03/26 03:16:32;;;;;;;1.60;1.30;;;19.00;58.70;;;;;;5024210;28;20057;-51
2024/03/26 03:18:57;;;;;;;1.65;1.20;;;19.00;58.70;;;;;;5020982;28;20031;-49
2024/03/26 03:21:23;;;;;;;1.92;1.35;;;19.00;58.70;;;;;;5024282;28;20078;-54
2024/03/26 03:23:48;;;;;;;2.20;1.40;;;19.00;58.80;;;;;;5024055;28;20116;-50
2024/03/26 03:26:13;;;;;;;1.27;1.13;;;18.90;58.60;;;;;;5022869;28;20067;-54
2024/03/26 03:28:39;;;;;;;2.05;1.23;;;18.90;58.80;;;;;;5021899;28;20037;-53
2024/03/26 03:31:05;;;;;;;1.92;1.30;;;18.90;58.80;;;;;;5020596;28;20033;-51
2024/03/26 03:33:30;;;;;;;2.95;1.30;;;18.90;58.70;;;;;;5024260;28;20025;-52
2024/03/26 03:35:56;;;;;;;1.58;1.27;;;18.90;58.80;;;;;;5027545;28;20495;-51
2024/03/26 03:38:22;;;;;;;3.28;1.27;;;18.90;58.80;;;;;;5026404;28;20029;-54
2024/03/26 03:40:49;;;;;;;1.35;1.25;;;18.90;58.80;;;;;;5032646;28;20033;-55
2024/03/26 03:43:15;;;;;;;1.10;1.00;;;18.80;58.80;;;;;;5028690;28;20056;-52
2024/03/26 03:45:40;;;;;;;1.33;1.00;;;18.80;58.90;;;;;;5030084;28;20064;-54
2024/03/26 03:48:06;;;;;;;1.73;1.20;;;18.80;58.80;;;;;;5029345;28;20061;-51
2024/03/26 03:50:32;;;;;;;1.45;1.08;;;18.80;59.00;;;;;;5022754;28;20530;-54
2024/03/26 03:52:57;;;;;;;1.77;1.20;;;18.80;58.80;;;;;;5020520;28;20034;-51
2024/03/26 03:55:23;;;;;;;1.35;1.25;;;18.80;58.90;;;;;;5023791;28;20116;-55
2024/03/26 03:57:48;;;;;;;1.60;0.93;;;18.80;58.80;;;;;;5031214;28;20021;-51
2024/03/26 04:00:14;;;;;;;1.17;1.00;;;18.80;59.00;;;;;;5019213;28;20021;-51
2024/03/26 04:02:40;;;;;;;1.67;1.33;;;18.80;59.00;;;;;;5011883;28;20254;-53
2024/03/26 04:05:06;;;;;;;1.80;1.20;;;18.80;58.90;;;;;;5012923;28;20038;-53
2024/03/26 04:07:31;;;;;;;1.70;1.15;;;18.80;58.90;;;;;;5023243;28;20029;-52
2024/03/26 04:09:57;;;;;;;1.70;1.05;;;18.80;58.90;;;;;;5016974;28;20636;-54
2024/03/26 04:12:22;;;;;;;1.48;1.00;;;18.80;59.50;;;;;;5020241;28;20049;-55
2024/03/26 04:14:48;;;;;;;1.15;1.00;;;18.80;58.90;;;;;;5027791;28;20029;-54
2024/03/26 04:17:13;;;;;;;1.40;1.05;;;18.70;58.90;;;;;;5023495;28;20045;-51
2024/03/26 04:19:39;;;;;;;1.45;1.10;;;18.80;59.00;;;;;;5025531;28;20482;-52
2024/03/26 04:22:04;;;;;;;1.23;1.00;;;18.80;59.00;;;;;;5019013;28;20037;-49
2024/03/26 04:24:30;;;;;;;1.83;1.17;;;18.80;59.50;;;;;;5025608;28;20102;-50
2024/03/26 04:26:55;;;;;;;2.03;1.38;;;18.80;59.00;;;;;;5019868;28;20030;-61
2024/03/26 04:29:21;;;;;;;1.42;1.20;;;18.80;58.90;;;;;;5024334;28;20480;-53
2024/03/26 04:31:46;;;;;;;1.83;1.13;;;18.80;58.90;;;;;;5026951;28;20099;-53
2024/03/26 04:34:12;;;;;;;1.90;1.20;;;18.80;58.90;;;;;;5031017;28;20035;-53
2024/03/26 04:36:37;;;;;;;1.63;1.10;;;18.80;58.90;;;;;;5028176;28;20029;-52
2024/03/26 04:39:03;;;;;;;1.05;0.90;;;18.80;59.50;;;;;;5034498;28;20064;-55
2024/03/26 04:41:29;;;;;;;1.33;0.90;;;18.80;58.80;;;;;;5031430;28;20549;-54
2024/03/26 04:43:54;;;;;;;1.77;1.00;;;18.80;58.90;;;;;;5025229;28;20201;-51
2024/03/26 04:46:20;;;;;;;1.20;0.90;;;18.80;58.90;;;;;;5029372;28;20026;-51
2024/03/26 04:48:45;;;;;;;1.15;1.00;;;18.80;58.90;;;;;;5030173;28;20048;-56
2024/03/26 04:51:10;;;;;;;2.15;1.20;;;18.80;58.90;;;;;;5032330;28;20033;-54
2024/03/26 04:53:36;;;;;;;0.95;0.80;;;18.70;58.70;;;;;;5032126;28;20045;-51
2024/03/26 04:56:02;;;;;;;1.75;1.20;;;18.80;58.80;;;;;;5026470;28;20041;-53
2024/03/26 04:58:27;;;;;;;0.93;0.82;;;18.80;58.80;;;;;;5032940;28;20036;-54
2024/03/26 05:00:53;;;;;;;2.20;0.88;;;18.80;58.70;;;;;;5028801;28;20026;-53
2024/03/26 05:03:18;;;;;;;1.30;0.98;;;18.80;58.80;;;;;;5027713;28;20090;-54
2024/03/26 05:05:44;;;;;;;1.17;1.02;;;18.80;58.70;;;;;;5030845;28;20044;-51
2024/03/26 05:08:09;;;;;;;1.45;1.00;;;18.80;58.60;;;;;;5028988;28;20486;-53
2024/03/26 05:10:35;;;;;;;1.17;0.82;;;18.80;58.70;;;;;;5025953;28;20033;-52
2024/03/26 05:13:00;;;;;;;1.15;1.00;;;18.80;58.70;;;;;;5028291;28;20045;-54
2024/03/26 05:15:26;;;;;;;1.88;1.00;;;18.80;58.70;;;;;;5026200;28;20030;-55
2024/03/26 05:17:51;;;;;;;1.45;1.02;;;18.80;58.60;;;;;;5029979;28;20064;-51
2024/03/26 05:20:17;;;;;;;1.20;0.95;;;18.80;58.60;;;;;;5029004;28;20037;-55
2024/03/26 05:22:42;;;;;;;1.30;0.95;;;18.80;58.50;;;;;;5027217;28;20038;-52
2024/03/26 05:25:08;;;;;;;0.95;0.85;;;18.80;58.50;;;;;;5025694;28;20041;-50
2024/03/26 05:27:33;;;;;;;1.25;0.90;;;18.80;58.50;;;;;;5029867;28;20621;-53
2024/03/26 05:29:59;;;;;;;2.65;1.17;;;18.90;58.60;;;;;;5025878;28;20447;-52
2024/03/26 05:32:24;;;;;;;1.20;0.98;;;18.90;58.60;;;;;;5027576;28;20025;-54
2024/03/26 05:34:50;;;;;;;1.38;1.00;;;18.80;58.60;;;;;;5022549;28;20395;-50
2024/03/26 05:37:16;;;;;;;1.05;0.90;;;18.90;58.50;;;;;;5029637;28;20029;-55
2024/03/26 05:39:42;;;;;;;1.42;0.93;;;18.90;58.40;;;;;;5033208;28;20120;-55
2024/03/26 05:42:07;;;;;;;1.40;1.10;;;18.90;58.50;;;;;;5028161;28;20117;-53
2024/03/26 05:44:33;;;;;;;2.40;1.10;;;18.90;58.40;;;;;;5032778;28;20075;-52
2024/03/26 05:46:58;;;;;;;1.50;1.13;;;18.90;58.50;;;;;;5026608;28;20113;-54
2024/03/26 05:49:24;;;;;;;1.15;0.80;;;18.90;58.40;;;;;;5033714;28;20048;-56
2024/03/26 05:51:49;;;;;;;1.45;1.10;;;18.90;58.40;;;;;;5028853;28;20486;-49
2024/03/26 05:54:14;;;;;;;1.20;1.00;;;18.90;58.40;;;;;;5027762;28;20030;-51
2024/03/26 05:56:40;;;;;;;3.13;1.17;;;18.90;58.40;;;;;;5030592;28;20033;-54
2024/03/26 05:59:07;;;;;;;1.77;0.95;;;19.00;58.40;;;;;;5027259;28;20037;-50
2024/03/26 06:01:32;;;;;;;0.88;0.82;;;19.00;58.30;;;;;;5026546;28;20030;-52
2024/03/26 06:03:58;;;;;;;1.25;1.02;;;19.00;58.40;;;;;;5024122;28;20395;-55
2024/03/26 06:06:23;;;;;;;1.00;0.90;;;19.00;58.30;;;;;;5027914;28;20053;-52
2024/03/26 06:08:49;;;;;;;1.65;1.10;;;19.00;58.30;;;;;;5022614;28;20033;-54
2024/03/26 06:11:14;;;;;;;0.98;0.75;;;19.00;58.30;;;;;;5022471;28;20717;-53
2024/03/26 06:13:40;;;;;;;2.50;1.52;;;19.00;58.20;;;;;;5022868;28;20112;-52
2024/03/26 06:16:11;;;;;;;0.80;0.73;;;19.00;58.20;;;;;;5022492;28;20037;-53
2024/03/26 06:18:36;;;;;;;0.80;0.80;;;19.00;58.30;;;;;;5025941;28;20039;-56
2024/03/26 06:21:03;;;;;;;1.77;0.98;;;19.00;58.30;;;;;;5028775;28;20030;-51
2024/03/26 06:23:29;;;;;;;0.95;0.80;;;19.00;58.30;;;;;;5029267;28;20156;-53
2024/03/26 06:25:54;;;;;;;1.23;1.00;;;19.00;58.20;;;;;;5026622;28;20076;-56
2024/03/26 06:28:20;;;;;;;1.02;0.82;;;19.10;58.80;;;;;;5026840;28;20044;-55
2024/03/26 06:30:46;;;;;;;2.55;1.05;;;19.10;58.60;;;;;;5030857;28;20052;-49
2024/03/26 06:33:12;;;;;;;1.38;0.90;;;19.10;58.20;;;;;;5027462;28;20132;-56
2024/03/26 06:35:38;;;;;;;2.50;0.90;;;19.10;58.10;;;;;;5028312;28;20172;-52
2024/03/26 06:38:05;;;;;;;0.93;0.82;;;19.10;58.20;;;;;;5026034;28;20032;-55
2024/03/26 06:40:31;;;;;;;1.92;1.00;;;19.10;58.20;;;;;;5034131;28;20068;-57
2024/03/26 06:42:57;;;;;;;1.30;0.73;;;19.10;58.20;;;;;;5026412;28;20022;-55
2024/03/26 06:45:22;;;;;;;1.85;0.95;;;19.10;58.20;;;;;;5028612;28;20032;-58
2024/03/26 06:47:48;;;;;;;1.48;0.80;;;19.10;58.20;;;;;;5024260;28;20040;-56
2024/03/26 06:50:13;;;;;;;1.05;0.60;;;19.10;58.20;;;;;;5029187;28;20034;-53
2024/03/26 06:52:39;;;;;;;3.95;1.20;;;19.10;58.20;;;;;;5025561;28;20037;-50
2024/03/26 06:55:05;;;;;;;3.25;1.13;;;19.10;58.20;;;;;;5027020;28;20032;-53
2024/03/26 06:57:31;;;;;;;1.60;0.65;;;19.10;58.30;;;;;;5026841;28;20025;-57
2024/03/26 06:59:58;;;;;;;1.27;0.80;;;19.00;58.30;;;;;;5031956;28;20025;-55
2024/03/26 07:02:24;;;;;;;1.10;0.70;;;19.00;58.40;;;;;;5028468;28;20033;-55
2024/03/26 07:04:50;;;;;;;1.02;0.60;;;19.00;58.50;;;;;;5021254;28;20836;-54
2024/03/26 07:07:15;;;;;;;1.10;0.60;;;19.00;58.50;;;;;;5026601;28;20082;-51
2024/03/26 07:09:41;;;;;;;1.70;0.90;;;19.00;58.50;;;;;;5025689;28;20045;-54
2024/03/26 07:12:07;;;;;;;1.15;0.75;;;18.90;58.60;;;;;;5019110;28;20037;-53
2024/03/26 07:14:33;;;;;;;1.95;1.20;;;18.90;58.60;;;;;;5023310;28;20029;-54
2024/03/26 07:16:59;;;;;;;3.40;1.30;;;18.90;58.60;;;;;;5025328;28;20105;-52
2024/03/26 07:19:25;;;;;;;2.63;1.02;;;18.80;58.70;;;;;;5020563;28;20146;-53
2024/03/26 07:21:50;;;;;;;2.75;1.00;;;18.80;58.80;;;;;;5023808;28;20567;-53
2024/03/26 07:24:16;;;;;;;1.92;0.68;;;18.80;59.00;;;;;;5023990;28;20044;-53
2024/03/26 07:26:42;;;;;;;1.02;0.68;;;18.80;59.00;;;;;;5023672;28;20048;-52
2024/03/26 07:29:07;;;;;;;1.85;0.93;;;18.70;59.00;;;;;;5025985;28;20040;-54
2024/03/26 07:31:33;;;;;;;1.20;0.70;;;18.70;59.00;;;;;;5024851;28;20541;-53
2024/03/26 07:33:58;;;;;;;1.10;1.00;;;18.70;59.00;;;;;;5024621;28;20036;-54
2024/03/26 07:36:24;;;;;;;2.03;1.20;;;18.70;59.00;;;;;;5023326;28;20601;-53
2024/03/26 07:38:50;;;;;;;1.10;0.90;;;18.70;59.00;;;;;;5024839;28;20096;-53
2024/03/26 07:41:18;;;;;;;1.55;0.88;;;18.70;59.00;;;;;;5026040;28;20033;-54
2024/03/26 07:43:43;;;;;;;2.50;1.17;;;18.70;59.00;;;;;;5026044;28;20029;-52
2024/03/26 07:46:09;;;;;;;0.95;0.95;;;18.80;59.00;;;;;;5026930;28;20405;-53
2024/03/26 07:48:34;;;;;;;1.52;0.90;;;18.70;58.90;;;;;;5025012;28;20071;-55
2024/03/26 07:51:01;;;;;;;2.45;1.33;;;18.80;58.90;;;;;;5020990;28;20041;-54
2024/03/26 07:53:26;;;;;;;1.48;1.10;;;18.80;58.90;;;;;;5012995;28;20437;-52
2024/03/26 07:55:52;;;;;;;1.10;0.70;;;18.80;58.90;;;;;;5014989;28;20036;-53
2024/03/26 07:58:17;;;;;;;2.50;1.10;;;18.80;58.80;;;;;;5015792;28;20218;-51
2024/03/26 08:00:43;;;;;;;2.28;1.00;;;18.80;58.70;;;;;;5017872;28;20029;-52
2024/03/26 08:03:09;;;;;;;1.80;0.70;;;18.80;58.70;;;;;;5018577;28;20657;-54
2024/03/26 08:05:34;;;;;;;1.95;0.77;;;18.90;58.80;;;;;;5020286;28;20033;-53
2024/03/26 08:08:00;;;;;;;0.82;0.60;;;18.90;58.80;;;;;;5018705;28;20551;-54
2024/03/26 08:10:25;;;;;;;1.42;0.90;;;18.90;58.70;;;;;;5017467;28;20044;-53
2024/03/26 08:12:51;;;;;;;3.33;1.20;;;18.90;58.60;;;;;;5021623;28;20074;-55
2024/03/26 08:15:17;;;;;;;2.67;1.10;;;18.90;58.60;;;;;;5019272;28;20032;-53
2024/03/26 08:17:43;;;;;;;1.75;0.85;;;18.90;58.60;;;;;;5025428;28;20283;-53
2024/03/26 08:20:09;;;;;;;1.50;1.13;;;18.90;58.50;;;;;;5022903;28;20047;-54
2024/03/26 08:22:36;;;;;;;3.10;0.90;;;19.00;58.60;;;;;;5026540;28;20076;-53
2024/03/26 08:25:02;;;;;;;2.03;1.02;;;19.00;58.40;;;;;;5023802;28;20159;-54
2024/03/26 08:27:27;;;;;;;1.83;0.85;;;19.00;58.40;;;;;;5014340;28;21002;-53
2024/03/26 08:29:53;;;;;;;1.58;0.90;;;19.00;58.40;;;;;;5021615;28;20041;-52
2024/03/26 08:32:18;;;;;;;0.98;0.80;;;19.00;58.40;;;;;;5006278;28;20128;-52
2024/03/26 08:34:44;;;;;;;0.98;0.80;;;19.10;58.30;;;;;;5025333;28;20132;-54
2024/03/26 08:37:09;;;;;;;3.55;1.25;;;19.10;58.30;;;;;;5021165;28;20041;-52
2024/03/26 08:39:35;;;;;;;1.63;0.85;;;19.10;58.30;;;;;;5020218;28;20033;-53
2024/03/26 08:42:00;;;;;;;4.97;0.90;;;19.10;58.30;;;;;;5019138;28;20106;-51
2024/03/26 08:44:26;;;;;;;3.55;1.17;;;19.10;58.20;;;;;;5018456;28;20034;-53
2024/03/26 08:46:51;;;;;;;1.20;0.85;;;19.10;58.20;;;;;;5023489;28;20735;-52
2024/03/26 08:49:17;;;;;;;0.90;0.82;;;19.10;58.20;;;;;;5019391;28;20044;-53
2024/03/26 08:51:42;;;;;;;1.15;0.80;;;19.20;58.20;;;;;;5025604;28;20035;-54
2024/03/26 08:54:08;;;;;;;2.25;1.10;;;19.20;58.20;;;;;;5023361;28;20029;-52
2024/03/26 08:56:34;;;;;;;1.13;0.85;;;19.20;58.10;;;;;;5022876;28;20047;-53
2024/03/26 08:58:59;;;;;;;2.17;0.90;;;19.20;58.10;;;;;;5020292;28;20030;-53
2024/03/26 09:01:24;;;;;;;1.85;0.93;;;19.30;58.10;;;;;;5024826;28;20037;-54
2024/03/26 09:03:50;;;;;;;1.10;0.75;;;19.20;57.90;;;;;;5026735;28;20438;-52
2024/03/26 09:06:16;;;;;;;1.00;0.70;;;19.30;58.00;;;;;;5028015;28;20489;-52
2024/03/26 09:08:42;;;;;;;2.17;1.42;;;19.30;57.90;;;;;;5017948;28;20763;-51
2024/03/26 09:11:07;;;;;;;0.85;0.70;;;19.30;57.90;;;;;;5021439;28;20490;-54
2024/03/26 09:13:39;;;;;;;1.98;0.68;;;19.30;57.90;;;;;;5016513;28;20033;-53
2024/03/26 09:16:08;;;;;;;2.28;1.02;;;19.30;57.90;;;;;;5021035;28;20053;-51
2024/03/26 09:18:34;;;;;;;2.33;0.90;;;19.30;57.80;;;;;;5025696;28;20033;-51
2024/03/26 09:21:00;;;;;;;1.95;1.15;;;19.30;57.90;;;;;;5024203;28;20033;-53
2024/03/26 09:23:26;;;;;;;2.35;1.02;;;19.30;57.90;;;;;;5021356;28;20052;-51
2024/03/26 09:25:53;;;;;;;0.88;0.63;;;19.30;57.90;;;;;;5023540;28;20033;-48
2024/03/26 09:28:18;;;;;;;1.30;0.80;;;19.30;57.90;;;;;;5019379;28;22373;-54
2024/03/26 09:30:46;;;;;;;1.77;1.10;;;19.30;58.00;;;;;;5023604;28;20041;-51
2024/03/26 09:33:12;;;;;;;1.52;0.90;;;19.30;58.00;;;;;;5024902;28;20041;-52
2024/03/26 09:35:37;;;;;;;0.80;0.80;;;19.30;57.90;;;;;;5019787;28;20103;-52
2024/03/26 09:38:03;;;;;;;1.50;0.90;;;19.30;58.60;;;;;;5008048;28;20038;-50
2024/03/26 09:40:33;;;;;;;2.22;0.85;;;19.30;58.00;;;;;;5016731;28;20040;-63
2024/03/26 09:43:02;;;;;;;1.77;1.00;;;19.20;58.00;;;;;;5017713;28;20033;-60
2024/03/26 09:45:33;;;;;;;2.70;0.90;;;19.30;58.00;;;;;;5017681;28;20098;-53
2024/03/26 09:48:00;;;;;;;1.30;1.00;;;19.20;58.10;;;;;;5024914;28;20048;-50
2024/03/26 09:50:30;;;;;;;1.33;0.73;;;19.20;58.20;;;;;;5028790;28;20091;-52
2024/03/26 09:52:57;;;;;;;1.10;0.80;;;19.20;58.10;;;;;;5022227;28;20767;-54
2024/03/26 09:55:28;;;;;;;1.17;0.70;;;19.20;58.00;;;;;;5018097;28;20553;-52
2024/03/26 09:57:53;;;;;;;1.17;0.93;;;19.20;58.10;;;;;;5021767;28;20184;-57
2024/03/26 10:00:19;;;;;;;1.77;0.90;;;19.20;58.00;;;;;;5024894;28;20571;-54
2024/03/26 10:02:47;;;;;;;1.58;1.00;;;19.20;58.10;;;;;;5023332;28;20076;-54
2024/03/26 10:05:16;;;;;;;2.15;0.82;;;19.20;58.10;;;;;;5031873;28;20037;-52
2024/03/26 10:07:44;;;;;;;1.10;0.90;;;19.20;58.10;;;;;;5004978;28;20037;-52
2024/03/26 10:10:10;;;;;;;1.20;0.80;;;19.20;58.20;;;;;;5022626;28;20030;-53
2024/03/26 10:12:41;;;;;;;1.40;0.75;;;19.20;58.20;;;;;;5020826;28;20089;-55
2024/03/26 10:15:07;;;;;;;0.90;0.88;;;19.20;58.10;;;;;;5020626;28;20036;-51
2024/03/26 10:17:36;;;;;;;0.70;0.70;;;19.20;58.20;;;;;;5018754;28;20039;-52
2024/03/26 10:20:03;;;;;;;1.88;0.95;;;19.20;58.10;;;;;;5009038;28;20033;-54
2024/03/26 10:22:28;;;;;;;1.50;0.90;;;19.20;58.20;;;;;;5024283;28;20029;-54
2024/03/26 10:24:54;;;;;;;2.35;0.73;;;19.20;58.10;;;;;;5022392;28;20040;-56
2024/03/26 10:27:20;;;;;;;1.35;0.70;;;19.20;58.10;;;;;;5019690;28;20021;-53
2024/03/26 10:29:45;;;;;;;1.02;0.88;;;19.20;58.10;;;;;;5018735;28;20037;-52
2024/03/26 10:32:15;;;;;;;1.55;0.75;;;19.30;58.10;;;;;;5021800;28;20410;-52
2024/03/26 10:34:42;;;;;;;1.55;1.13;;;19.20;58.20;;;;;;5024117;28;20040;-51
2024/03/26 10:37:09;;;;;;;1.25;0.70;;;19.30;58.10;;;;;;5018982;28;20076;-55
2024/03/26 10:39:36;;;;;;;1.50;0.80;;;19.30;58.10;;;;;;5035747;23;20170;-51
2024/03/26 10:42:03;;;;;;;0.95;0.82;;;19.30;58.10;;;;;;5072611;28;20059;-54
2024/03/26 10:44:31;;;;;;;0.70;0.70;;;19.30;58.00;;;;;;5076200;28;20027;-53
2024/03/26 10:46:58;;;;;;;1.27;0.90;;;19.30;58.00;;;;;;5077936;28;20039;-53
2024/03/26 10:49:25;;;;;;;2.00;0.80;;;19.30;58.10;;;;;;5069965;28;20029;-53
2024/03/26 10:51:52;;;;;;;2.45;1.00;;;19.30;58.00;;;;;;5066407;28;20042;-52
2024/03/26 10:54:19;;;;;;;1.23;1.00;;;19.30;58.10;;;;;;5066423;28;20519;-53
2024/03/26 10:56:47;;;;;;;1.52;0.80;;;19.30;57.90;;;;;;5072043;28;20032;-55
2024/03/26 10:59:13;;;;;;;1.30;0.95;;;19.30;58.00;;;;;;5072471;28;20028;-53
2024/03/26 11:01:42;;;;;;;1.00;0.90;;;19.30;58.00;;;;;;5070611;28;20028;-53
2024/03/26 11:04:08;;;;;;;1.67;1.02;;;19.30;57.90;;;;;;5069213;28;20044;-57
2024/03/26 11:06:34;;;;;;;0.90;0.70;;;19.40;58.00;;;;;;5074460;28;20112;-53
2024/03/26 11:09:03;;;;;;;1.45;0.82;;;19.30;57.90;;;;;;5073672;28;20119;-55
2024/03/26 11:11:33;;;;;;;1.17;0.70;;;19.40;57.90;;;;;;5068432;28;20061;-53
2024/03/26 11:13:59;;;;;;;0.98;0.88;;;19.40;57.90;;;;;;5065834;28;20050;-53
2024/03/26 11:16:38;;;;;;;1.00;0.90;;;19.40;58.00;;;;;;5075939;28;20028;-54
2024/03/26 11:19:22;;;;;;;1.63;0.75;;;19.40;57.90;;;;;;5071774;28;20741;-54
2024/03/26 11:21:49;;;;;;;0.95;0.63;;;19.40;58.00;;;;;;5074239;28;20507;-53
2024/03/26 11:24:25;;;;;;;0.88;0.70;;;19.40;57.80;;;;;;5073523;28;20382;-53
2024/03/26 11:26:51;;;;;;;1.35;0.82;;;19.50;57.90;;;;;;5067361;28;20036;-54
2024/03/26 11:29:18;;;;;;;1.17;0.80;;;19.50;57.80;;;;;;5068172;28;20162;-54
2024/03/26 11:31:46;;;;;;;1.38;0.80;;;19.50;57.80;;;;;;5068869;28;20029;-54
2024/03/26 11:34:13;;;;;;;1.02;0.60;;;19.50;57.80;;;;;;5071170;28;20032;-53
2024/03/26 11:36:40;;;;;;;1.08;0.70;;;19.50;57.70;;;;;;5070432;28;20024;-53
2024/03/26 11:39:06;;;;;;;0.93;0.70;;;19.50;57.80;;;;;;5073144;28;20866;-53
2024/03/26 11:41:33;;;;;;;2.35;1.17;;;19.50;57.70;;;;;;5072631;28;20137;-54
2024/03/26 11:44:00;;;;;;;1.23;0.90;;;19.50;57.60;;;;;;5076807;28;20523;-53
2024/03/26 11:46:25;;;;;;;1.17;0.80;;;19.50;57.70;;;;;;5075519;28;20043;-52
2024/03/26 11:48:56;;;;;;;0.88;0.80;;;19.60;57.80;;;;;;5077471;28;20557;-58
2024/03/26 11:51:22;;;;;;;0.80;0.70;;;19.60;57.70;;;;;;5074009;28;20033;-51
2024/03/26 11:53:47;;;;;;;1.50;0.70;;;19.50;57.70;;;;;;5075987;28;20028;-56
2024/03/26 11:56:14;;;;;;;0.80;0.70;;;19.50;57.70;;;;;;5073466;28;20102;-59
2024/03/26 11:58:40;;;;;;;0.90;0.80;;;19.60;57.80;;;;;;5075562;28;20040;-50
2024/03/26 12:01:08;;;;;;;0.85;0.82;;;19.50;57.80;;;;;;5071646;28;20039;-57
2024/03/26 12:03:34;;;;;;;0.80;0.70;;;19.60;57.80;;;;;;5078584;28;20024;-56
2024/03/26 12:06:00;;;;;;;1.08;0.70;;;19.50;57.60;;;;;;5072796;28;20031;-56
2024/03/26 12:08:25;;;;;;;0.80;0.80;;;19.60;57.80;;;;;;5052536;28;20088;-57
2024/03/26 12:10:51;;;;;;;0.95;0.70;;;19.60;57.80;;;;;;5073070;28;20111;-50
2024/03/26 12:13:16;;;;;;;1.35;0.80;;;19.60;57.70;;;;;;5078257;28;20044;-54
2024/03/26 12:15:43;;;;;;;2.15;0.90;;;19.60;57.80;;;;;;5071776;28;20101;-52
2024/03/26 12:18:09;;;;;;;1.08;0.90;;;19.50;57.70;;;;;;5069817;28;20053;-51
2024/03/26 12:20:35;;;;;;;0.80;0.70;;;19.50;57.80;;;;;;5075994;28;20032;-60
2024/03/26 12:23:04;;;;;;;1.05;0.75;;;19.60;57.80;;;;;;5076802;28;20548;-54
2024/03/26 12:25:30;;;;;;;2.58;0.80;;;19.50;57.80;;;;;;5071335;28;20031;-53
2024/03/26 12:27:58;;;;;;;0.70;0.70;;;19.50;57.80;;;;;;5076296;28;20033;-57
2024/03/26 12:30:24;;;;;;;1.27;0.70;;;19.50;57.90;;;;;;5070775;28;20470;-51
2024/03/26 12:32:59;;;;;;;0.80;0.80;;;19.50;58.00;;;;;;5073587;28;20267;-57
2024/03/26 12:35:25;;;;;;;1.75;0.80;;;19.50;58.00;;;;;;5071846;28;20112;-52
2024/03/26 12:37:50;;;;;;;0.80;0.70;;;19.50;58.00;;;;;;5062265;28;20128;-55
2024/03/26 12:40:16;;;;;;;1.85;0.90;;;19.50;58.00;;;;;;5068854;28;20033;-50
2024/03/26 12:42:42;;;;;;;1.23;0.80;;;19.50;58.00;;;;;;5073112;28;20024;-49